logo
Rechercher aéroport 
image banner adimage banner adimage banner ad
image banner ad

MDES - Penuela

Situé à Valverde, Dominican Republic

ICAO - , IATA -

Données fournies par Airmate  

Information générale

Coordonnées: N19°35'3" W70°57'32"
Élévation : 328 feet MSL.
 
Voir autres Aéroports à Valverde Province

Données opérationnelles

Special qualification required
Heure actuelle UTC:
Heure actuelle locale:
Météo à : MDST - Cibao Intl Airport ( 42 km )
METAR: MDST 032100Z 07012KT 050V120 9999 SCT022 SCT300 30/19 Q1016
TAF: TAF MDST 031600Z 0318/0418 11008KT 9999 SCT023 TEMPO 0318/0322 8000-RA BKN016
Voir NOTAMs / SUP AIP / TFR affectant cet aéroport [VIEW]
Fréquences de communication: [VIEW]

Pistes:

Identifiant RWYQFULongueur (ft)Largeur (ft)SurfaceLDA (ft)
0900UNK
2700UNK

Coordonnées de l'aéroport

Adresse: Valverde Dominican Republic

Vue satellite de MDES